This is the latest recevied weather packets stored in our database for station/object KW6V-15. If no packets are shown the sender has not sent any weather packets the latest 10 day(s).
| Time | Temp. | Humidity | Pressure | Rain* | Wind** | Luminosity | Snow |
|---|---|---|---|---|---|---|---|
| 1777746619 | 13.89° C | 83% | 1013 hPa | 0 mm | - | - | - |
| 1777744833 | 12.78° C | 87% | 1013 hPa | 0 mm | - | - | - |
| 1777743047 | 11.67° C | 86% | 1013.1 hPa | 0 mm | - | - | - |
| 1777741241 | 13.89° C | 82% | 1013 hPa | 0 mm | - | - | - |
| 1777739429 | 12.78° C | 87% | 1013 hPa | 0 mm | - | - | - |
| 1777737666 | 11.67° C | 90% | 1013.1 hPa | 0 mm | - | - | - |
| 1777735840 | 11.11° C | 91% | 1012.9 hPa | 0 mm | - | - | - |
| 1777734036 | 11.11° C | 92% | 1012.7 hPa | 0 mm | - | - | - |
| 1777732225 | 11.11° C | 92% | 1012.4 hPa | 0 mm | - | - | - |
| 1777730435 | 10.56° C | 92% | 1012.4 hPa | 0 mm | - | - | - |
| 1777728625 | 10° C | 92% | 1012.2 hPa | 0 mm | - | - | - |
| 1777726842 | 10° C | 92% | 1011.9 hPa | 0 mm | - | - | - |
| 1777725034 | 10° C | 92% | 1012.2 hPa | 0 mm | - | - | - |
| 1777723246 | 9.44° C | 91% | 1012.4 hPa | 0 mm | - | - | - |
| 1777721420 | 10° C | 91% | 1012.3 hPa | 0 mm | - | - | - |
| 1777719620 | 10.56° C | 91% | 1012.3 hPa | 0 mm | - | - | - |
| 1777717843 | 11.11° C | 91% | 1012.4 hPa | 0 mm | - | - | - |
| 1777716068 | 11.11° C | 91% | 1012.6 hPa | 0 mm | - | - | - |
| 1777714248 | 11.11° C | 91% | 1013.1 hPa | 0 mm | - | - | - |
| 1777712439 | 10.56° C | 91% | 1013.2 hPa | 0 mm | - | - | - |
| 1777710629 | 11.11° C | 91% | 1013.3 hPa | 0 mm | - | - | - |
| 1777708838 | 11.11° C | 91% | 1013.3 hPa | 0 mm | - | - | - |
| 1777707040 | 11.11° C | 90% | 1013.5 hPa | 0 mm | - | - | - |
| 1777705227 | 11.11° C | 90% | 1013.5 hPa | 0 mm | - | - | - |
| 1777703435 | 11.11° C | 90% | 1013.5 hPa | 0 mm | - | - | - |
* Rain latest hour (hover to see other rain measurements)
** Current wind speed in m/s (hover to see current wind gust speed)